createdAt,value
2018-07-21T00:00:26.153Z,100141.23
2018-07-21T00:01:29.546Z,100153.95
2018-07-21T00:02:32.923Z,100148.18
2018-07-21T00:03:36.348Z,100146.80
2018-07-21T00:04:39.771Z,100146.80
2018-07-21T00:05:43.349Z,100147.59
2018-07-21T00:06:46.763Z,100148.77
2018-07-21T00:07:50.164Z,100152.35
2018-07-21T00:08:53.594Z,100155.13
2018-07-21T00:09:57.032Z,100146.80
2018-07-21T00:11:00.437Z,100151.76
2018-07-21T00:12:03.848Z,100153.15
2018-07-21T00:13:07.493Z,100149.36
2018-07-21T00:14:10.971Z,100144.60
2018-07-21T00:15:14.345Z,100150.38
2018-07-21T00:16:17.735Z,100149.57
2018-07-21T00:17:21.149Z,100152.95
2018-07-21T00:18:24.568Z,100153.74
2018-07-21T00:19:27.984Z,100151.55
2018-07-21T00:20:31.402Z,100153.74
2018-07-21T00:21:34.809Z,100150.16
2018-07-21T00:22:38.212Z,100157.11
2018-07-21T00:23:41.616Z,100150.16
2018-07-21T00:24:45.029Z,100152.35
2018-07-21T00:25:48.420Z,100147.97
2018-07-21T00:26:51.835Z,100143.80
2018-07-21T00:27:55.260Z,100149.57
2018-07-21T00:28:58.671Z,100143.21
2018-07-21T00:30:02.116Z,100145.98
2018-07-21T00:31:05.568Z,100141.82
2018-07-21T00:32:09.280Z,100140.43
2018-07-21T00:33:12.711Z,100137.65
2018-07-21T00:34:16.114Z,100140.43
2018-07-21T00:35:19.526Z,100135.46
2018-07-21T00:36:22.928Z,100131.29
2018-07-21T00:37:26.323Z,100130.49
2018-07-21T00:38:29.744Z,100127.71
2018-07-21T00:39:33.158Z,100127.12
2018-07-21T00:40:36.639Z,100126.91
2018-07-21T00:41:40.062Z,100128.30
2018-07-21T00:42:43.666Z,100125.14
2018-07-21T00:43:47.065Z,100129.10
2018-07-21T00:44:50.479Z,100126.53
2018-07-21T00:45:53.915Z,100131.08
2018-07-21T00:46:57.318Z,100132.68
2018-07-21T00:48:00.758Z,100134.28
2018-07-21T00:49:04.387Z,100135.67
2018-07-21T00:50:07.988Z,100134.07
2018-07-21T00:51:11.390Z,100131.29
2018-07-21T00:52:14.818Z,100134.07
2018-07-21T00:53:18.238Z,100131.29
2018-07-21T00:54:21.638Z,100129.90
2018-07-21T00:55:25.036Z,100128.51
2018-07-21T00:56:28.648Z,100134.88
2018-07-21T00:57:32.040Z,100137.65
2018-07-21T00:58:35.450Z,100135.67
2018-07-21T00:59:38.871Z,100139.63
2018-07-21T01:00:42.309Z,100137.65
2018-07-21T01:01:45.786Z,100132.68
2018-07-21T01:02:49.190Z,100135.46
2018-07-21T01:03:52.592Z,100131.29
2018-07-21T01:04:56.170Z,100138.45
2018-07-21T01:05:59.552Z,100138.24
2018-07-21T01:07:03.041Z,100131.87
2018-07-21T01:08:06.457Z,100137.65
2018-07-21T01:09:10.954Z,100136.26
2018-07-21T01:10:14.350Z,100139.63
2018-07-21T01:11:17.756Z,100139.63
2018-07-21T01:12:21.192Z,100144.39
2018-07-21T01:13:24.573Z,100149.57
2018-07-21T01:14:27.972Z,100144.98
2018-07-21T01:15:31.369Z,100152.14
2018-07-21T01:16:34.843Z,100156.31
2018-07-21T01:17:38.588Z,100153.53
2018-07-21T01:18:42.007Z,100155.52
2018-07-21T01:19:45.425Z,100147.77
2018-07-21T01:20:48.818Z,100154.92
2018-07-21T01:21:52.236Z,100149.16
2018-07-21T01:22:55.672Z,100145.19
2018-07-21T01:23:59.064Z,100149.95
2018-07-21T01:25:02.476Z,100147.97
2018-07-21T01:26:05.950Z,100149.16
2018-07-21T01:27:09.336Z,100146.38
2018-07-21T01:28:12.745Z,100149.95
2018-07-21T01:29:16.170Z,100143.59
2018-07-21T01:30:19.583Z,100138.83
2018-07-21T01:31:23.014Z,100144.78
2018-07-21T01:32:26.431Z,100136.64
2018-07-21T01:33:29.868Z,100143.00
2018-07-21T01:34:33.268Z,100136.64
2018-07-21T01:35:36.677Z,100132.86
2018-07-21T01:36:40.063Z,100138.03
2018-07-21T01:37:43.534Z,100138.03
2018-07-21T01:38:46.991Z,100136.64
2018-07-21T01:39:50.376Z,100132.05
2018-07-21T01:40:53.810Z,100134.84
2018-07-21T01:41:57.228Z,100133.45
2018-07-21T01:43:00.627Z,100132.86
2018-07-21T01:44:04.402Z,100137.62
2018-07-21T01:45:07.834Z,100137.62
2018-07-21T01:46:11.232Z,100135.84
2018-07-21T01:47:14.634Z,100127.09
2018-07-21T01:48:18.036Z,100133.45
2018-07-21T01:49:21.468Z,100128.69
2018-07-21T01:50:24.841Z,100132.86
2018-07-21T01:51:28.258Z,100132.05
2018-07-21T01:52:31.634Z,100130.08
2018-07-21T01:53:35.055Z,100124.31
2018-07-21T01:54:38.519Z,100124.31
2018-07-21T01:55:41.906Z,100122.92
2018-07-21T01:56:45.328Z,100120.34
2018-07-21T01:57:48.803Z,100118.95
2018-07-21T01:58:52.192Z,100116.56
2018-07-21T01:59:55.620Z,100112.98
2018-07-21T02:00:59.013Z,100111.00
2018-07-21T02:02:03.069Z,100112.39
2018-07-21T02:03:12.086Z,100115.17
2018-07-21T02:04:15.491Z,100108.22
2018-07-21T02:05:19.100Z,100112.39
2018-07-21T02:06:22.490Z,100116.56
2018-07-21T02:07:25.900Z,100114.95
2018-07-21T02:08:29.322Z,100117.95
2018-07-21T02:09:32.740Z,100108.01
2018-07-21T02:10:36.134Z,100120.73
2018-07-21T02:11:39.533Z,100109.61
2018-07-21T02:12:43.003Z,100104.64
2018-07-21T02:13:46.403Z,100108.22
2018-07-21T02:14:49.798Z,100108.01
2018-07-21T02:15:53.227Z,100107.42
2018-07-21T02:16:56.609Z,100098.87
2018-07-21T02:18:00.193Z,100101.06
2018-07-21T02:19:03.788Z,100102.45
2018-07-21T02:20:07.568Z,100103.84
2018-07-21T02:21:11.018Z,100101.06
2018-07-21T02:22:14.416Z,100095.50
2018-07-21T02:23:17.801Z,100098.87
2018-07-21T02:24:21.222Z,100096.89
2018-07-21T02:25:24.598Z,100099.46
2018-07-21T02:26:28.008Z,100103.05
2018-07-21T02:27:32.130Z,100099.46
2018-07-21T02:28:35.512Z,100099.46
2018-07-21T02:29:38.918Z,100102.24
2018-07-21T02:30:42.328Z,100095.29
2018-07-21T02:31:45.729Z,100102.24
2018-07-21T02:32:49.139Z,100103.62
2018-07-21T02:33:52.535Z,100098.87
2018-07-21T02:34:55.924Z,100097.27
2018-07-21T02:35:59.315Z,100098.66
2018-07-21T02:37:02.712Z,100097.86
2018-07-21T02:38:06.139Z,100095.29
2018-07-21T02:39:11.183Z,100095.08
2018-07-21T02:40:14.611Z,100093.69
2018-07-21T02:41:18.217Z,100097.06
2018-07-21T02:42:21.643Z,100090.11
2018-07-21T02:43:25.037Z,100085.35
2018-07-21T02:44:28.436Z,100085.35
2018-07-21T02:45:31.866Z,100085.95
2018-07-21T02:46:35.274Z,100083.75
2018-07-21T02:47:38.686Z,100081.77
2018-07-21T02:48:42.085Z,100089.73
2018-07-21T02:49:45.564Z,100079.80
2018-07-21T02:50:48.936Z,100079.80
2018-07-21T02:51:52.371Z,100079.80
2018-07-21T02:52:55.765Z,100080.38
2018-07-21T02:53:59.180Z,100077.81
2018-07-21T02:55:02.557Z,100077.60
2018-07-21T02:56:05.953Z,100076.42
2018-07-21T02:57:09.386Z,100078.99
2018-07-21T02:58:12.826Z,100079.80
2018-07-21T02:59:16.198Z,100081.19
2018-07-21T03:00:19.608Z,100084.77
2018-07-21T03:01:22.988Z,100089.52
2018-07-21T03:02:26.439Z,100088.13
2018-07-21T03:03:30.210Z,100090.91
2018-07-21T03:04:33.689Z,100089.31
2018-07-21T03:05:37.107Z,100095.67
2018-07-21T03:06:40.524Z,100094.87
2018-07-21T03:07:44.031Z,100097.06
2018-07-21T03:08:47.651Z,100092.89
2018-07-21T03:09:54.912Z,100092.30
2018-07-21T03:10:58.575Z,100099.05
2018-07-21T03:12:01.977Z,100095.67
2018-07-21T03:13:05.456Z,100092.09
2018-07-21T03:14:08.899Z,100093.48
2018-07-21T03:22:30.364Z,100094.87
2018-07-21T03:23:33.791Z,100090.88
2018-07-21T03:24:37.208Z,100091.48
2018-07-21T03:25:40.643Z,100090.67
2018-07-21T03:26:44.033Z,100085.67
2018-07-21T03:27:47.435Z,100084.87
2018-07-21T03:28:50.823Z,100093.22
2018-07-21T03:29:54.236Z,100091.03
2018-07-21T03:30:57.716Z,100091.23
2018-07-21T03:32:01.058Z,100091.03
2018-07-21T03:33:04.624Z,100095.79
2018-07-21T03:34:08.027Z,100093.81
2018-07-21T03:35:11.445Z,100095.41
2018-07-21T03:36:14.836Z,100096.80
2018-07-21T03:37:18.245Z,100093.02
2018-07-21T03:38:21.667Z,100098.78
2018-07-21T03:39:25.075Z,100100.97
2018-07-21T03:40:28.525Z,100099.58
2018-07-21T03:41:31.944Z,100101.56
2018-07-21T03:42:35.994Z,100096.00
2018-07-21T03:43:39.388Z,100099.96
2018-07-21T03:44:42.804Z,100096.59
2018-07-21T03:45:46.220Z,100107.12
2018-07-21T03:46:49.627Z,100100.76
2018-07-21T03:47:53.012Z,100099.37
2018-07-21T03:48:56.398Z,100103.54
2018-07-21T03:49:59.850Z,100106.32
2018-07-21T03:51:03.307Z,100096.59
2018-07-21T03:52:06.767Z,100106.32
2018-07-21T03:53:10.189Z,100098.78
2018-07-21T03:54:13.569Z,100102.95
2018-07-21T03:55:16.974Z,100107.12
2018-07-21T03:56:20.364Z,100096.59
2018-07-21T03:57:23.763Z,100096.59
2018-07-21T03:58:27.173Z,100093.81
2018-07-21T03:59:30.576Z,100095.79
2018-07-21T04:00:34.042Z,100094.99
2018-07-21T04:01:37.558Z,100092.42
2018-07-21T04:02:40.957Z,100097.39
2018-07-21T04:03:44.350Z,100089.64
2018-07-21T04:04:47.718Z,100088.84
2018-07-21T04:05:51.143Z,100086.86
2018-07-21T04:06:54.558Z,100085.47
2018-07-21T04:07:57.964Z,100081.09
2018-07-21T04:09:01.400Z,100086.06
2018-07-21T04:10:06.100Z,100088.05
2018-07-21T04:11:09.478Z,100091.63
2018-07-21T04:12:12.880Z,100086.45
2018-07-21T04:13:16.276Z,100090.82
2018-07-21T04:14:19.674Z,100086.66
2018-07-21T04:15:23.077Z,100089.43
2018-07-21T04:16:26.493Z,100097.77
2018-07-21T04:17:29.914Z,100092.00
2018-07-21T04:18:33.343Z,100097.77
2018-07-21T04:19:36.787Z,100100.34
2018-07-21T04:20:40.158Z,100100.55
2018-07-21T04:21:43.583Z,100103.12
2018-07-21T04:22:46.979Z,100101.94
2018-07-21T04:23:50.391Z,100105.31
2018-07-21T04:24:54.207Z,100103.92
2018-07-21T04:25:57.630Z,100100.55
2018-07-21T04:27:01.064Z,100101.73
2018-07-21T04:28:04.477Z,100097.56
2018-07-21T04:29:07.865Z,100103.12
2018-07-21T04:30:11.249Z,100107.89
2018-07-21T04:31:14.640Z,100112.05
2018-07-21T04:32:18.038Z,100114.83
2018-07-21T04:33:21.444Z,100111.26
2018-07-21T04:34:24.857Z,100116.23
2018-07-21T04:35:28.281Z,100114.83
2018-07-21T04:36:31.673Z,100119.59
2018-07-21T04:37:35.110Z,100117.02
2018-07-21T04:38:38.565Z,100118.20
2018-07-21T04:39:41.990Z,100120.98
2018-07-21T04:40:45.615Z,100121.20
2018-07-21T04:41:49.012Z,100124.56
2018-07-21T04:42:52.409Z,100131.52
2018-07-21T04:43:55.786Z,100126.55
2018-07-21T04:44:59.188Z,100133.50
2018-07-21T04:46:02.610Z,100132.11
2018-07-21T04:47:06.033Z,100139.65
2018-07-21T04:48:09.464Z,100136.87
2018-07-21T04:49:12.871Z,100136.06
2018-07-21T04:50:16.307Z,100137.45
2018-07-21T04:51:19.712Z,100143.02
2018-07-21T04:52:23.118Z,100140.23
2018-07-21T04:53:26.509Z,100140.23
2018-07-21T04:54:29.923Z,100143.02
2018-07-21T04:55:33.309Z,100140.83
2018-07-21T04:56:36.719Z,100146.39
2018-07-21T04:57:40.130Z,100148.78
2018-07-21T04:58:43.574Z,100151.36
2018-07-21T04:59:46.979Z,100142.22
2018-07-21T05:00:50.428Z,100145.80
2018-07-21T05:01:53.802Z,100142.22
2018-07-21T05:02:57.192Z,100151.36
2018-07-21T05:04:00.592Z,100147.19
2018-07-21T05:05:04.127Z,100145.80
2018-07-21T05:06:07.539Z,100150.34
2018-07-21T05:07:10.929Z,100152.53
2018-07-21T05:08:14.388Z,100150.94
2018-07-21T05:09:17.781Z,100156.12
2018-07-21T05:10:21.172Z,100153.93
2018-07-21T05:11:24.575Z,100157.30
2018-07-21T05:12:28.000Z,100158.09
2018-07-21T05:13:31.402Z,100162.06
2018-07-21T05:14:34.851Z,100158.48
2018-07-21T05:15:38.226Z,100160.67
2018-07-21T05:16:41.680Z,100152.92
2018-07-21T05:17:45.081Z,100160.88
2018-07-21T05:18:48.693Z,100157.68
2018-07-21T05:19:52.087Z,100160.67
2018-07-21T05:20:55.624Z,100161.26
2018-07-21T05:21:59.014Z,100161.85
2018-07-21T05:23:02.444Z,100155.70
2018-07-21T05:24:06.118Z,100157.68
2018-07-21T05:25:09.583Z,100159.07
2018-07-21T05:26:12.972Z,100153.52
2018-07-21T05:27:16.414Z,100152.71
2018-07-21T05:28:19.790Z,100153.52
2018-07-21T05:29:23.190Z,100158.27
2018-07-21T05:30:26.617Z,100154.90
2018-07-21T05:31:30.017Z,100162.44
2018-07-21T05:32:33.485Z,100158.86
2018-07-21T05:33:36.972Z,100163.03
2018-07-21T05:34:40.383Z,100158.86
2018-07-21T05:35:43.808Z,100160.25
2018-07-21T05:36:47.227Z,100158.06
2018-07-21T05:37:50.620Z,100158.66
2018-07-21T05:38:54.018Z,100155.28
2018-07-21T05:39:57.397Z,100157.27
2018-07-21T05:41:00.802Z,100156.67
2018-07-21T05:42:04.548Z,100159.45
2018-07-21T05:43:08.240Z,100157.86
2018-07-21T05:44:11.658Z,100157.86
2018-07-21T05:45:15.164Z,100164.80
2018-07-21T05:46:18.643Z,100162.02
2018-07-21T05:47:22.016Z,100163.20
2018-07-21T05:48:25.417Z,100168.17
2018-07-21T05:49:28.795Z,100170.36
2018-07-21T05:50:32.205Z,100169.56
2018-07-21T05:51:35.654Z,100170.95
2018-07-21T05:52:39.041Z,100166.78
2018-07-21T05:53:42.504Z,100175.71
2018-07-21T05:54:46.167Z,100175.92
2018-07-21T05:55:49.598Z,100171.55
2018-07-21T05:56:53.019Z,100175.92
2018-07-21T05:57:56.618Z,100179.88
2018-07-21T05:58:59.994Z,100177.31
2018-07-21T06:00:03.479Z,100187.63
2018-07-21T06:01:06.946Z,100180.47
2018-07-21T06:02:10.593Z,100183.25
2018-07-21T06:03:14.088Z,100190.80
2018-07-21T06:04:17.471Z,100192.39
2018-07-21T06:05:58.721Z,100195.76
2018-07-21T06:07:02.192Z,100193.57
2018-07-21T06:08:05.903Z,100202.50
2018-07-21T06:09:10.940Z,100198.33
2018-07-21T06:10:14.538Z,100202.71
2018-07-21T06:11:18.021Z,100202.71
2018-07-21T06:12:21.470Z,100201.91
2018-07-21T06:13:24.983Z,100206.08
2018-07-21T06:14:28.479Z,100201.70
2018-07-21T06:15:31.900Z,100209.23
2018-07-21T06:16:35.978Z,100205.28
2018-07-21T06:17:39.666Z,100207.47
2018-07-21T06:18:43.149Z,100207.85
2018-07-21T06:19:46.536Z,100204.48
2018-07-21T06:20:49.952Z,100202.29
2018-07-21T06:21:53.375Z,100199.51
2018-07-21T06:22:56.807Z,100203.68
2018-07-21T06:24:00.240Z,100205.87
2018-07-21T06:25:04.555Z,100209.83
2018-07-21T06:26:07.987Z,100203.68
2018-07-21T06:27:11.411Z,100209.23
2018-07-21T06:28:14.871Z,100209.23
2018-07-21T06:29:18.263Z,100211.78
2018-07-21T06:30:21.688Z,100210.39
2018-07-21T06:31:25.097Z,100213.41
2018-07-21T06:32:28.517Z,100215.95
2018-07-21T06:33:32.066Z,100213.17
2018-07-21T06:34:35.595Z,100214.34
2018-07-21T06:35:39.114Z,100215.95
2018-07-21T06:36:42.479Z,100220.70
2018-07-21T06:37:45.937Z,100219.31
2018-07-21T06:38:49.384Z,100225.25
2018-07-21T06:39:54.033Z,100218.52
2018-07-21T06:40:57.476Z,100217.13
2018-07-21T06:42:00.884Z,100221.30
2018-07-21T06:43:04.294Z,100224.66
2018-07-21T06:44:07.892Z,100217.72
2018-07-21T06:45:11.363Z,100220.50
2018-07-21T06:46:14.798Z,100225.47
2018-07-21T06:47:18.273Z,100224.08
2018-07-21T06:48:21.685Z,100231.61
2018-07-21T06:49:25.124Z,100233.59
2018-07-21T06:50:28.581Z,100240.75
2018-07-21T06:51:32.028Z,100238.56
2018-07-21T06:52:35.456Z,100237.77
2018-07-21T06:53:38.871Z,100237.17
2018-07-21T06:54:42.284Z,100235.78
2018-07-21T06:55:45.689Z,100233.80
2018-07-21T06:56:49.120Z,100234.39
2018-07-21T06:57:52.954Z,100234.98
2018-07-21T06:58:56.373Z,100230.81
2018-07-21T06:59:59.841Z,100234.39
2018-07-21T07:01:03.288Z,100236.38
2018-07-21T07:02:06.892Z,100237.77
2018-07-21T07:03:10.430Z,100242.14
2018-07-21T07:04:13.814Z,100235.78
2018-07-21T07:05:17.246Z,100234.19
2018-07-21T07:06:20.659Z,100233.38
2018-07-21T07:07:24.087Z,100233.00
2018-07-21T07:08:27.508Z,100233.00
2018-07-21T07:09:30.909Z,100238.35
2018-07-21T07:10:34.306Z,100234.98
2018-07-21T07:11:37.722Z,100232.58
2018-07-21T07:12:41.138Z,100239.73
2018-07-21T07:13:45.725Z,100237.34
2018-07-21T07:14:49.147Z,100238.94
2018-07-21T07:15:52.577Z,100239.73
2018-07-21T07:16:56.004Z,100233.38
2018-07-21T07:17:59.448Z,100231.99
2018-07-21T07:19:02.856Z,100232.58
2018-07-21T07:20:06.448Z,100230.61
2018-07-21T07:21:09.884Z,100226.22
2018-07-21T07:22:13.356Z,100227.82
2018-07-21T07:23:16.799Z,100228.41
2018-07-21T07:24:20.226Z,100222.64
2018-07-21T07:25:23.644Z,100222.27
2018-07-21T07:26:27.029Z,100223.45
2018-07-21T07:27:30.467Z,100223.45
2018-07-21T07:28:33.872Z,100223.45
2018-07-21T07:29:37.264Z,100223.45
2018-07-21T07:30:40.684Z,100224.24
2018-07-21T07:31:44.121Z,100222.05
2018-07-21T07:32:47.517Z,100226.22
2018-07-21T07:33:50.927Z,100227.61
2018-07-21T07:34:54.317Z,100226.22
2018-07-21T07:35:57.712Z,100224.24
2018-07-21T07:37:01.133Z,100224.63
2018-07-21T07:38:05.499Z,100225.63
2018-07-21T07:39:10.231Z,100222.05
2018-07-21T07:40:13.634Z,100232.58
2018-07-21T07:41:17.038Z,100233.17
2018-07-21T07:42:20.475Z,100227.61
2018-07-21T07:43:23.866Z,100226.81
2018-07-21T07:44:27.250Z,100233.17
2018-07-21T07:45:30.655Z,100235.16
2018-07-21T07:46:34.571Z,100236.55
2018-07-21T07:47:37.993Z,100233.77
2018-07-21T07:48:41.408Z,100230.18
2018-07-21T07:49:44.793Z,100221.84
2018-07-21T07:50:48.398Z,100230.98
2018-07-21T07:51:51.810Z,100230.98
2018-07-21T07:52:55.263Z,100224.63
2018-07-21T07:53:58.909Z,100225.42
2018-07-21T07:55:02.389Z,100219.45
2018-07-21T07:56:05.785Z,100221.84
2018-07-21T07:57:09.756Z,100216.28
2018-07-21T07:58:13.158Z,100221.84
2018-07-21T07:59:16.531Z,100219.06
2018-07-21T08:00:19.931Z,100221.84
2018-07-21T08:01:23.410Z,100217.67
2018-07-21T08:02:26.741Z,100219.66
2018-07-21T08:03:30.226Z,100225.80
2018-07-21T08:04:33.745Z,100214.69
2018-07-21T08:05:37.136Z,100216.08
2018-07-21T08:06:40.556Z,100214.90
2018-07-21T08:07:43.982Z,100217.47
2018-07-21T08:08:47.382Z,100214.90
2018-07-21T08:09:50.762Z,100208.33
2018-07-21T08:10:54.172Z,100213.09
2018-07-21T08:11:57.551Z,100214.69
2018-07-21T08:13:00.975Z,100213.30
2018-07-21T08:14:04.476Z,100206.94
2018-07-21T08:15:07.909Z,100208.92
2018-07-21T08:16:11.308Z,100207.53
2018-07-21T08:17:14.702Z,100206.73
2018-07-21T08:18:18.153Z,100206.14
2018-07-21T08:19:21.612Z,100204.16
2018-07-21T08:20:24.966Z,100211.11
2018-07-21T08:21:28.416Z,100201.97
2018-07-21T08:22:31.814Z,100199.19
2018-07-21T08:23:36.088Z,100202.56
2018-07-21T08:24:39.551Z,100198.60
2018-07-21T08:25:43.088Z,100203.95
2018-07-21T08:26:46.546Z,100196.63
2018-07-21T08:27:51.806Z,100198.39
2018-07-21T08:28:55.358Z,100200.96
2018-07-21T08:29:58.785Z,100194.02
2018-07-21T08:31:02.240Z,100199.99
2018-07-21T08:32:05.709Z,100196.41
2018-07-21T08:33:09.115Z,100201.97
2018-07-21T08:34:12.725Z,100196.41
2018-07-21T08:35:16.134Z,100190.85
2018-07-21T08:36:19.585Z,100199.19
2018-07-21T08:37:23.001Z,100196.41
2018-07-21T08:38:26.432Z,100199.99
2018-07-21T08:39:29.821Z,100201.97
2018-07-21T08:40:33.247Z,100197.21
2018-07-21T08:41:36.784Z,100196.41
2018-07-21T08:42:40.180Z,100194.44
2018-07-21T08:43:43.595Z,100197.80
2018-07-21T08:44:47.122Z,100191.66
2018-07-21T08:45:50.546Z,100194.44
2018-07-21T08:46:54.214Z,100194.64
2018-07-21T08:47:57.586Z,100191.66
2018-07-21T08:49:00.991Z,100190.27
2018-07-21T08:50:05.178Z,100188.08
2018-07-21T08:51:08.687Z,100191.66
2018-07-21T08:52:12.102Z,100193.84
2018-07-21T08:53:15.542Z,100195.23
2018-07-21T08:54:18.926Z,100198.81
2018-07-21T08:55:22.316Z,100192.45
2018-07-21T08:56:25.751Z,100191.06
2018-07-21T08:57:29.191Z,100185.72
2018-07-21T08:58:32.600Z,100193.84
2018-07-21T08:59:35.979Z,100187.70
2018-07-21T09:00:39.357Z,100189.89
2018-07-21T09:01:42.792Z,100192.66
2018-07-21T09:02:46.182Z,100189.89
2018-07-21T09:03:49.805Z,100191.27
2018-07-21T09:04:53.204Z,100190.09
2018-07-21T09:05:56.605Z,100188.50
2018-07-21T09:07:00.006Z,100183.53
2018-07-21T09:08:03.404Z,100187.10
2018-07-21T09:09:09.546Z,100186.52
2018-07-21T09:10:12.940Z,100182.94
2018-07-21T09:11:16.779Z,100184.33
2018-07-21T09:12:20.215Z,100186.30
2018-07-21T09:13:23.598Z,100181.55
2018-07-21T09:14:27.043Z,100181.55
2018-07-21T09:15:30.454Z,100176.78
2018-07-21T09:16:33.863Z,100182.14
2018-07-21T09:17:37.261Z,100186.52
2018-07-21T09:18:40.648Z,100185.72
2018-07-21T09:19:44.052Z,100184.53
2018-07-21T09:20:47.452Z,100185.72
2018-07-21T09:21:50.822Z,100188.11
2018-07-21T09:22:54.236Z,100185.13
2018-07-21T09:23:57.618Z,100185.72
2018-07-21T09:25:01.055Z,100183.14
2018-07-21T09:26:04.448Z,100184.53
2018-07-21T09:27:07.863Z,100180.58
2018-07-21T09:28:11.322Z,100183.73
2018-07-21T09:29:14.703Z,100190.09
2018-07-21T09:30:18.167Z,100183.73
2018-07-21T09:31:21.591Z,100184.53
2018-07-21T09:32:24.984Z,100181.75
2018-07-21T09:33:28.378Z,100188.91
2018-07-21T09:34:31.790Z,100186.72
2018-07-21T09:35:35.395Z,100188.91
2018-07-21T09:36:38.788Z,100190.69
2018-07-21T09:37:42.231Z,100185.33
2018-07-21T09:38:45.649Z,100193.67
2018-07-21T09:39:49.049Z,100191.69
2018-07-21T09:40:52.452Z,100190.30
2018-07-21T09:41:55.887Z,100199.44
2018-07-21T09:42:59.284Z,100195.86
2018-07-21T09:44:02.732Z,100193.67
2018-07-21T09:45:06.193Z,100200.23
2018-07-21T09:46:09.988Z,100193.88
2018-07-21T09:47:13.486Z,100200.03
2018-07-21T09:48:16.880Z,100194.47
2018-07-21T09:49:20.290Z,100194.47
2018-07-21T09:50:23.687Z,100191.69
2018-07-21T09:51:27.076Z,100193.30
2018-07-21T09:52:30.569Z,100192.87
2018-07-21T09:53:34.015Z,100193.88
2018-07-21T09:54:37.433Z,100193.30
2018-07-21T09:55:40.886Z,100188.11
2018-07-21T09:56:44.318Z,100195.27
2018-07-21T09:57:47.729Z,100194.09
2018-07-21T09:58:51.154Z,100196.87
2018-07-21T09:59:54.582Z,100194.89
2018-07-21T10:01:02.146Z,100192.49
2018-07-21T10:02:05.584Z,100201.04
2018-07-21T10:03:09.011Z,100193.30
2018-07-21T10:04:12.426Z,100193.30
2018-07-21T10:05:15.846Z,100193.30
2018-07-21T10:06:19.229Z,100189.13
2018-07-21T10:07:22.636Z,100193.50
2018-07-21T10:08:26.076Z,100190.72
2018-07-21T10:09:29.491Z,100196.28
2018-07-21T10:10:32.929Z,100187.94
2018-07-21T10:11:36.368Z,100195.69
2018-07-21T10:12:39.802Z,100190.72
2018-07-21T10:13:43.511Z,100193.50
2018-07-21T10:14:46.940Z,100192.11
2018-07-21T10:15:50.405Z,100192.11
2018-07-21T10:16:53.803Z,100190.72
2018-07-21T10:17:57.212Z,100195.69
2018-07-21T10:19:00.616Z,100194.09
2018-07-21T10:20:04.100Z,100188.53
2018-07-21T10:21:07.501Z,100193.50
2018-07-21T10:22:11.016Z,100194.89
2018-07-21T10:23:14.380Z,100190.72
2018-07-21T10:24:23.146Z,100187.94
2018-07-21T10:25:31.808Z,100193.50
2018-07-21T10:26:41.300Z,100188.74
2018-07-21T10:27:49.961Z,100195.10
2018-07-21T10:28:58.797Z,100189.33
2018-07-21T10:30:02.190Z,100192.11
2018-07-21T10:31:05.623Z,100192.32
2018-07-21T10:32:09.397Z,100189.55
2018-07-21T10:33:12.890Z,100183.77
2018-07-21T10:34:17.418Z,100184.57
2018-07-21T10:35:20.866Z,100185.96
2018-07-21T10:36:24.347Z,100189.55
2018-07-21T10:37:28.160Z,100183.42
2018-07-21T10:38:31.879Z,100186.77
2018-07-21T10:39:35.856Z,100189.78
2018-07-21T10:40:39.288Z,100188.16
2018-07-21T10:41:43.079Z,100187.00
2018-07-21T10:42:47.296Z,100189.19
2018-07-21T10:43:50.791Z,100185.61
2018-07-21T10:44:54.274Z,100187.00
2018-07-21T10:45:57.755Z,100192.56
2018-07-21T10:47:01.682Z,100187.80
2018-07-21T10:48:05.099Z,100187.80
2018-07-21T10:49:08.677Z,100191.38
2018-07-21T10:50:12.239Z,100191.38
2018-07-21T10:51:15.654Z,100188.60
2018-07-21T10:52:19.060Z,100187.00
2018-07-21T10:53:22.616Z,100181.44
2018-07-21T10:54:26.152Z,100185.82
2018-07-21T10:55:29.557Z,100183.63
2018-07-21T10:56:32.985Z,100186.03
2018-07-21T10:57:36.372Z,100180.27
2018-07-21T10:58:39.872Z,100185.82
2018-07-21T10:59:43.315Z,100184.43
2018-07-21T11:00:46.732Z,100184.43
2018-07-21T11:01:50.199Z,100179.47
2018-07-21T11:02:53.601Z,100181.86
2018-07-21T11:03:57.021Z,100181.86
2018-07-21T11:05:00.458Z,100179.67
2018-07-21T11:06:05.900Z,100176.30
2018-07-21T11:07:09.304Z,100181.06
2018-07-21T11:08:12.686Z,100179.08
2018-07-21T11:09:16.147Z,100172.13
2018-07-21T11:10:19.551Z,100171.55
2018-07-21T11:11:22.970Z,100171.33
2018-07-21T11:12:26.385Z,100177.48
2018-07-21T11:13:29.996Z,100166.95
2018-07-21T11:14:33.424Z,100169.35
2018-07-21T11:15:36.836Z,100176.30
2018-07-21T11:16:40.252Z,100169.35
2018-07-21T11:17:43.828Z,100180.47
2018-07-21T11:18:47.414Z,100177.10
2018-07-21T11:19:52.332Z,100176.52
2018-07-21T11:20:55.770Z,100173.52
2018-07-21T11:21:59.260Z,100172.94
2018-07-21T11:23:02.642Z,100175.71
2018-07-21T11:24:06.160Z,100169.95
2018-07-21T11:25:09.810Z,100167.38
2018-07-21T11:26:13.400Z,100164.59
2018-07-21T11:27:16.810Z,100159.63
2018-07-21T11:28:20.200Z,100163.80
2018-07-21T11:29:23.588Z,100161.02
2018-07-21T11:30:27.014Z,100164.00
2018-07-21T11:31:30.556Z,100163.80
2018-07-21T11:32:34.075Z,100164.59
2018-07-21T11:33:37.465Z,100161.23
2018-07-21T11:34:40.856Z,100161.02
2018-07-21T11:35:44.409Z,100168.77
2018-07-21T11:36:47.870Z,100169.56
2018-07-21T11:37:51.262Z,100169.35
2018-07-21T11:38:54.690Z,100170.16
2018-07-21T11:39:58.293Z,100170.16
2018-07-21T11:41:01.725Z,100169.35
2018-07-21T11:42:05.560Z,100172.34
2018-07-21T11:43:08.974Z,100172.34
2018-07-21T11:44:12.499Z,100167.38
2018-07-21T11:45:15.944Z,100182.07
2018-07-21T11:46:19.500Z,100181.48
2018-07-21T11:47:22.918Z,100180.68
2018-07-21T11:48:26.322Z,100170.95
2018-07-21T11:49:29.756Z,100181.48
2018-07-21T11:50:33.253Z,100179.50
2018-07-21T11:51:36.669Z,100181.69
2018-07-21T11:52:40.332Z,100179.29
2018-07-21T11:53:43.735Z,100185.86
2018-07-21T11:54:47.159Z,100182.28
2018-07-21T11:55:50.782Z,100181.48
2018-07-21T11:57:00.644Z,100182.28
2018-07-21T11:58:04.105Z,100178.11
2018-07-21T11:59:07.567Z,100182.28
2018-07-21T12:00:10.966Z,100176.93
2018-07-21T12:01:14.392Z,100181.69
2018-07-21T12:02:17.850Z,100176.72
2018-07-21T12:03:21.244Z,100185.27
2018-07-21T12:04:25.346Z,100185.06
2018-07-21T12:05:28.848Z,100184.47
2018-07-21T12:06:32.232Z,100185.86
2018-07-21T12:07:35.648Z,100185.86
2018-07-21T12:08:39.044Z,100177.52
2018-07-21T12:09:42.460Z,100182.28
2018-07-21T12:10:45.864Z,100176.93
2018-07-21T12:11:49.303Z,100176.93
2018-07-21T12:12:53.347Z,100170.57